Time;durP1;ratioP1;P1;durP2;ratioP2;P2;SDS_P1;SDS_P2;PMS_P1;PMS_P2;Temp;Humidity;BMP_temperature;BMP_pressure;BME280_temperature;BME280_humidity;BME280_pressure;Samples;Min_cycle;Max_cycle;Signal;HPM_P1;HPM_P2
2021/11/13 00:00:05;;;;;;;17.50;9.50;;;;;;;4.17;87.93;96281.56;5109258;27;20051;-71
2021/11/13 00:02:31;;;;;;;19.55;8.38;;;;;;;4.21;87.93;96282.63;5108698;28;20734;-71
2021/11/13 00:04:58;;;;;;;21.17;9.95;;;;;;;4.27;87.81;96281.50;5094226;28;20059;-71
2021/11/13 00:07:24;;;;;;;21.60;9.95;;;;;;;4.24;87.75;96271.28;5088410;28;20515;-71
2021/11/13 00:09:52;;;;;;;17.27;9.18;;;;;;;4.24;87.67;96265.09;5089671;28;20044;-71
2021/11/13 00:12:19;;;;;;;17.08;8.88;;;;;;;4.24;87.82;96265.91;5088199;28;20043;-70
2021/11/13 00:14:46;;;;;;;22.85;9.80;;;;;;;4.26;88.00;96263.72;5089326;28;20491;-71
2021/11/13 00:17:13;;;;;;;19.83;9.93;;;;;;;4.22;87.88;96257.28;5088664;28;20044;-70
2021/11/13 00:19:39;;;;;;;20.95;10.30;;;;;;;4.24;87.76;96254.31;5089764;28;20059;-70
2021/11/13 00:22:06;;;;;;;21.15;10.20;;;;;;;4.30;88.14;96264.78;5089234;28;20694;-70
2021/11/13 00:24:33;;;;;;;20.73;10.07;;;;;;;4.33;87.58;96261.53;5088616;28;20054;-70
2021/11/13 00:27:01;;;;;;;21.42;9.70;;;;;;;4.37;87.63;96262.56;5089462;28;20414;-70
2021/11/13 00:29:27;;;;;;;18.98;9.82;;;;;;;4.40;87.51;96262.00;5088268;28;20055;-70
2021/11/13 00:31:54;;;;;;;20.80;10.32;;;;;;;4.47;87.66;96258.19;5089587;28;20052;-70
2021/11/13 00:34:21;;;;;;;21.27;10.15;;;;;;;4.54;87.31;96258.66;5087965;28;20473;-70
2021/11/13 00:36:47;;;;;;;21.15;10.93;;;;;;;4.56;87.16;96267.28;5088980;28;20055;-70
2021/11/13 00:39:14;;;;;;;21.60;10.55;;;;;;;4.55;86.82;96265.69;5086805;28;20044;-70
2021/11/13 00:41:41;;;;;;;18.73;10.18;;;;;;;4.58;86.62;96271.31;5088432;28;20101;-70
2021/11/13 00:44:09;;;;;;;19.85;9.60;;;;;;;4.56;87.02;96264.59;5088268;28;20063;-70
2021/11/13 00:46:37;;;;;;;21.90;10.70;;;;;;;4.51;86.49;96264.63;5088301;28;20047;-70
2021/11/13 00:49:05;;;;;;;20.02;10.50;;;;;;;4.49;86.89;96261.38;5088773;28;20067;-70
2021/11/13 00:51:31;;;;;;;19.02;10.30;;;;;;;4.51;87.08;96253.84;5087826;28;20044;-70
2021/11/13 00:53:58;;;;;;;23.55;11.00;;;;;;;4.48;87.12;96265.97;5088873;28;20619;-71
2021/11/13 00:56:24;;;;;;;21.73;11.70;;;;;;;4.52;87.41;96263.53;5087522;28;20048;-70
2021/11/13 00:58:51;;;;;;;23.98;10.90;;;;;;;4.52;87.07;96256.25;5088242;28;20707;-70
2021/11/13 01:01:19;;;;;;;21.90;10.45;;;;;;;4.48;86.90;96259.78;5087256;28;20040;-70
2021/11/13 01:03:46;;;;;;;20.25;10.30;;;;;;;4.44;87.24;96249.59;5087850;28;20052;-70
2021/11/13 01:06:12;;;;;;;23.02;11.15;;;;;;;4.43;87.01;96245.25;5086277;28;20048;-70
2021/11/13 01:08:40;;;;;;;21.35;10.05;;;;;;;4.48;87.56;96246.31;5088032;28;20051;-70
2021/11/13 01:11:07;;;;;;;21.80;10.90;;;;;;;4.45;87.23;96248.50;5087567;28;20411;-70
2021/11/13 01:13:34;;;;;;;20.60;10.48;;;;;;;4.44;87.19;96244.19;5087491;28;20044;-70
2021/11/13 01:16:00;;;;;;;20.33;11.25;;;;;;;4.52;87.15;96241.97;5088334;28;20044;-73
2021/11/13 01:18:28;;;;;;;20.55;11.50;;;;;;;4.50;86.91;96236.88;5087296;28;20757;-70
2021/11/13 01:20:55;;;;;;;20.83;10.88;;;;;;;4.49;87.34;96239.81;5088000;28;20056;-70
2021/11/13 01:23:22;;;;;;;18.45;10.20;;;;;;;4.51;87.21;96240.38;5085156;28;20074;-70
2021/11/13 01:25:49;;;;;;;27.92;11.85;;;;;;;4.53;87.15;96240.88;5087933;28;20051;-71
2021/11/13 01:28:15;;;;;;;25.92;11.00;;;;;;;4.54;86.85;96247.88;5087059;28;20056;-70
2021/11/13 01:30:42;;;;;;;31.65;12.75;;;;;;;4.52;86.90;96239.28;5087610;28;20040;-70
2021/11/13 01:33:09;;;;;;;21.58;11.40;;;;;;;4.53;87.46;96238.19;5087335;28;20063;-71
2021/11/13 01:35:36;;;;;;;24.52;12.35;;;;;;;4.51;87.42;96237.66;5086894;28;20055;-72
2021/11/13 01:38:03;;;;;;;25.90;12.23;;;;;;;4.51;87.76;96237.66;5087642;28;20063;-72
2021/11/13 01:40:30;;;;;;;26.52;12.73;;;;;;;4.52;87.88;96234.69;5087056;28;20054;-70
2021/11/13 01:42:58;;;;;;;23.77;12.30;;;;;;;4.51;87.91;96232.28;5104220;28;20053;-70
2021/11/13 01:45:26;;;;;;;24.48;12.05;;;;;;;4.55;87.97;96225.22;5106629;28;20050;-70
2021/11/13 01:47:53;;;;;;;26.05;13.43;;;;;;;4.60;87.92;96219.81;5108020;28;20052;-72
2021/11/13 01:50:23;;;;;;;28.48;12.65;;;;;;;4.64;87.98;96210.03;5106766;28;20055;-70
2021/11/13 01:52:52;;;;;;;25.17;12.70;;;;;;;4.64;87.48;96204.63;5107620;28;20074;-70
2021/11/13 01:55:21;;;;;;;28.48;13.82;;;;;;;4.64;87.32;96204.63;5107208;28;20051;-70
2021/11/13 01:57:48;;;;;;;26.40;13.38;;;;;;;4.66;87.51;96213.28;5107228;28;20043;-70
2021/11/13 02:00:20;;;;;;;24.88;12.95;;;;;;;4.66;87.66;96207.88;5107825;28;20047;-70
2021/11/13 02:02:47;;;;;;;29.95;14.23;;;;;;;4.67;87.62;96204.09;5106907;28;20044;-71
2021/11/13 02:05:13;;;;;;;26.10;13.48;;;;;;;4.62;87.48;96209.53;5106207;28;20047;-70
2021/11/13 02:07:40;;;;;;;24.63;13.80;;;;;;;4.55;87.15;96200.97;5106961;28;20048;-71
2021/11/13 02:10:11;;;;;;;25.13;14.07;;;;;;;4.53;87.57;96203.13;5107340;28;20043;-70
2021/11/13 02:12:37;;;;;;;27.08;13.35;;;;;;;4.51;87.57;96210.69;5105012;28;20051;-71
2021/11/13 02:15:05;;;;;;;23.58;12.40;;;;;;;4.49;87.17;96207.47;5107106;28;20048;-70
2021/11/13 02:17:32;;;;;;;33.40;15.05;;;;;;;4.50;87.58;96204.50;5107686;28;20058;-70
2021/11/13 02:20:15;;;;;;;34.35;14.35;;;;;;;4.53;87.61;96208.50;5107272;28;20047;-71
2021/11/13 02:22:42;;;;;;;34.42;14.25;;;;;;;4.52;87.68;96206.91;5107638;28;20082;-70
2021/11/13 02:25:09;;;;;;;28.05;13.82;;;;;;;4.53;87.74;96203.94;5106540;28;20044;-71
2021/11/13 02:27:35;;;;;;;30.42;13.80;;;;;;;4.57;87.39;96209.56;5106406;28;20100;-70
2021/11/13 02:30:02;;;;;;;24.60;13.48;;;;;;;4.61;87.36;96202.53;5106518;28;20059;-70
2021/11/13 02:32:29;;;;;;;25.85;13.50;;;;;;;4.63;87.21;96206.53;5107453;28;20044;-70
2021/11/13 02:34:55;;;;;;;22.95;13.18;;;;;;;4.64;87.28;96199.25;5105804;28;20043;-70
2021/11/13 02:37:28;;;;;;;29.00;13.82;;;;;;;4.66;87.32;96197.88;5106934;28;20048;-70
2021/11/13 02:39:55;;;;;;;32.00;14.32;;;;;;;4.68;87.58;96194.91;5107740;28;20510;-70
2021/11/13 02:42:22;;;;;;;31.60;14.75;;;;;;;4.63;87.51;96208.44;5092605;28;20864;-71
2021/11/13 02:44:50;;;;;;;31.30;14.48;;;;;;;4.70;87.34;96217.00;5087826;28;20044;-70
2021/11/13 02:47:17;;;;;;;29.80;14.32;;;;;;;4.67;87.33;96214.88;5087273;28;20545;-70
2021/11/13 02:49:44;;;;;;;27.70;15.02;;;;;;;4.60;87.10;96219.81;5087361;28;20056;-70
2021/11/13 02:52:11;;;;;;;35.30;15.30;;;;;;;4.63;87.56;96219.22;5085613;28;20052;-70
2021/11/13 02:54:44;;;;;;;43.63;15.23;;;;;;;4.61;87.21;96216.00;5087018;28;20044;-70
2021/11/13 02:57:10;;;;;;;34.40;14.70;;;;;;;4.58;87.46;96222.75;5086172;28;20068;-70
2021/11/13 02:59:41;;;;;;;36.80;14.95;;;;;;;4.55;88.01;96219.84;5086650;28;20048;-70
2021/11/13 03:02:08;;;;;;;35.95;14.88;;;;;;;4.52;88.12;96217.69;5087449;28;20044;-70
2021/11/13 03:04:34;;;;;;;36.22;15.27;;;;;;;4.56;88.42;96221.44;5090103;28;20091;-70
2021/11/13 03:07:01;;;;;;;35.05;15.63;;;;;;;4.58;88.71;96216.56;5091237;28;20052;-70
2021/11/13 03:09:28;;;;;;;32.22;15.70;;;;;;;4.60;88.56;96209.00;5089780;28;20044;-70
2021/11/13 03:11:56;;;;;;;36.13;15.80;;;;;;;4.58;88.48;96205.78;5098304;28;20074;-70
2021/11/13 03:14:22;;;;;;;33.40;15.48;;;;;;;4.61;88.83;96207.91;5109636;28;20051;-70
2021/11/13 03:16:49;;;;;;;45.53;16.02;;;;;;;4.66;88.68;96197.09;5111017;28;20044;-70
2021/11/13 03:19:15;;;;;;;37.72;15.95;;;;;;;4.66;88.40;96203.28;5110082;28;20148;-70
2021/11/13 03:21:42;;;;;;;31.73;15.13;;;;;;;4.66;88.54;96203.28;5110337;28;20048;-70
2021/11/13 03:24:09;;;;;;;37.42;14.85;;;;;;;4.69;88.37;96218.88;5110109;28;20046;-70
2021/11/13 03:26:39;;;;;;;37.08;15.57;;;;;;;4.70;88.23;96215.13;5110803;28;20055;-70
2021/11/13 03:29:16;;;;;;;35.28;15.52;;;;;;;4.69;88.30;96218.06;5110623;27;20055;-70
2021/11/13 03:31:44;;;;;;;42.00;16.90;;;;;;;4.73;88.59;96213.72;5109867;27;20055;-70
2021/11/13 03:34:10;;;;;;;45.85;17.23;;;;;;;4.76;88.48;96213.19;5110294;28;20517;-70
2021/11/13 03:36:37;;;;;;;36.90;16.73;;;;;;;4.80;88.40;96213.41;5109776;28;20047;-71
2021/11/13 03:39:05;;;;;;;50.00;18.23;;;;;;;4.80;88.31;96214.19;5110364;27;20058;-70
2021/11/13 03:41:32;;;;;;;44.83;17.77;;;;;;;4.79;88.35;96218.00;5096064;28;20048;-71
2021/11/13 03:44:00;;;;;;;47.80;18.02;;;;;;;4.76;88.05;96213.19;5069452;28;20048;-70
2021/11/13 03:46:27;;;;;;;58.47;18.70;;;;;;;4.77;88.09;96213.97;5069092;28;20040;-70
2021/11/13 03:48:54;;;;;;;46.22;18.95;;;;;;;4.77;88.48;96214.78;5069215;28;20053;-70
2021/11/13 03:51:22;;;;;;;45.97;20.23;;;;;;;4.82;88.63;96212.03;5069554;28;20048;-70
2021/11/13 03:53:49;;;;;;;42.53;17.95;;;;;;;4.85;88.68;96206.06;5068806;28;20040;-70
2021/11/13 03:56:15;;;;;;;58.00;19.80;;;;;;;4.90;88.79;96208.69;5069478;28;20829;-70
2021/11/13 03:58:42;;;;;;;44.50;18.50;;;;;;;4.94;88.80;96211.66;5068785;28;20458;-70
2021/11/13 04:01:09;;;;;;;48.33;19.52;;;;;;;5.02;88.47;96210.22;5069205;28;20136;-70
2021/11/13 04:03:36;;;;;;;55.08;18.67;;;;;;;5.04;88.07;96218.84;5069063;28;20044;-71
2021/11/13 04:06:03;;;;;;;46.97;18.90;;;;;;;5.07;88.38;96224.47;5069059;28;20507;-70
2021/11/13 04:08:29;;;;;;;53.65;18.85;;;;;;;5.10;87.66;96218.50;5069354;28;20052;-70
2021/11/13 04:10:56;;;;;;;45.60;18.75;;;;;;;5.11;87.57;96222.00;5068798;28;20059;-70
2021/11/13 04:13:22;;;;;;;51.15;19.67;;;;;;;5.13;87.67;96223.34;5068644;28;20051;-70
2021/11/13 04:15:49;;;;;;;40.90;18.67;;;;;;;5.16;87.19;96224.63;5068226;28;20052;-70
2021/11/13 04:18:15;;;;;;;47.30;18.52;;;;;;;5.13;87.09;96230.63;5069394;28;20052;-70
2021/11/13 04:20:43;;;;;;;49.10;19.17;;;;;;;5.13;87.06;96230.63;5068686;28;20044;-70
2021/11/13 04:23:10;;;;;;;47.80;17.88;;;;;;;5.14;86.97;96240.31;5068914;28;20045;-70
2021/11/13 04:25:36;;;;;;;44.08;18.23;;;;;;;5.15;86.20;96245.44;5068529;28;20040;-70
2021/11/13 04:28:03;;;;;;;39.28;17.17;;;;;;;5.09;86.39;96249.28;5068606;28;20495;-70
2021/11/13 04:30:30;;;;;;;46.08;18.40;;;;;;;5.07;86.88;96245.28;5068745;28;20054;-71
2021/11/13 04:32:57;;;;;;;46.97;18.30;;;;;;;5.06;86.92;96246.34;5068224;28;20050;-71
2021/11/13 04:35:34;;;;;;;43.25;17.63;;;;;;;5.08;87.31;96246.88;5068504;28;20044;-71
2021/11/13 04:38:03;;;;;;;45.50;18.10;;;;;;;5.05;87.53;96247.44;5068196;28;20740;-71
2021/11/13 04:40:33;;;;;;;45.40;18.67;;;;;;;5.05;87.32;96255.53;5068719;28;20059;-71
2021/11/13 04:42:59;;;;;;;58.67;17.50;;;;;;;5.04;87.48;96256.63;5067643;28;20060;-70
2021/11/13 04:45:26;;;;;;;60.42;17.95;;;;;;;5.00;87.55;96255.56;5068365;28;20519;-71
2021/11/13 04:47:52;;;;;;;41.30;16.75;;;;;;;4.96;87.58;96256.16;5068070;28;20052;-70
2021/11/13 04:50:22;;;;;;;52.35;19.63;;;;;;;4.92;87.95;96252.41;5068167;28;20048;-70
2021/11/13 04:52:49;;;;;;;43.78;18.30;;;;;;;4.92;88.04;96255.13;5068372;28;20052;-70
2021/11/13 04:55:18;;;;;;;59.30;20.05;;;;;;;4.92;88.00;96252.41;5067748;28;20063;-70
2021/11/13 04:57:45;;;;;;;45.85;17.98;;;;;;;4.92;88.32;96249.72;5068290;28;20047;-70
2021/11/13 05:00:15;;;;;;;50.60;20.52;;;;;;;4.88;88.14;96251.38;5067354;28;20507;-70
2021/11/13 05:02:42;;;;;;;51.17;21.15;;;;;;;4.88;88.26;96243.28;5068599;28;20044;-71
2021/11/13 05:05:09;;;;;;;51.80;21.60;;;;;;;4.87;88.35;96251.66;5067217;28;20055;-71
2021/11/13 05:07:36;;;;;;;51.22;21.08;;;;;;;4.94;88.11;96252.13;5068763;28;20587;-71
2021/11/13 05:10:04;;;;;;;45.85;19.35;;;;;;;4.93;87.43;96259.41;5067277;28;20044;-70
2021/11/13 05:12:32;;;;;;;43.75;18.58;;;;;;;4.91;87.31;96258.09;5067834;28;20055;-71
2021/11/13 05:14:58;;;;;;;45.58;19.15;;;;;;;4.87;87.95;96257.06;5067937;28;20071;-70
2021/11/13 05:17:25;;;;;;;55.13;20.77;;;;;;;4.83;87.82;96250.59;5067440;28;20515;-70
2021/11/13 05:19:51;;;;;;;62.13;19.63;;;;;;;4.83;88.13;96256.81;5067760;28;20044;-70
2021/11/13 05:22:18;;;;;;;43.30;18.73;;;;;;;4.88;88.34;96254.06;5066621;28;20051;-70
2021/11/13 05:24:44;;;;;;;42.17;18.02;;;;;;;4.87;87.77;96241.66;5067630;28;20505;-70
2021/11/13 05:27:12;;;;;;;53.53;17.95;;;;;;;4.83;87.88;96254.09;5067620;28;20053;-71
2021/11/13 05:29:40;;;;;;;46.88;19.95;;;;;;;4.83;88.29;96251.41;5068200;28;20052;-71
2021/11/13 05:32:07;;;;;;;51.33;19.13;;;;;;;4.81;88.34;96252.78;5066811;28;20503;-71
2021/11/13 05:34:34;;;;;;;49.22;21.63;;;;;;;4.83;88.35;96256.81;5067638;28;20504;-70
2021/11/13 05:37:01;;;;;;;51.28;20.15;;;;;;;4.85;88.63;96254.63;5067479;28;20427;-70
2021/11/13 05:39:27;;;;;;;51.85;21.08;;;;;;;4.89;88.40;96266.47;5067227;28;20067;-70
2021/11/13 05:41:54;;;;;;;48.03;21.02;;;;;;;4.86;88.51;96258.94;5067597;28;20052;-70
2021/11/13 05:44:20;;;;;;;49.83;19.70;;;;;;;4.88;88.19;96264.84;5066610;28;20135;-70
2021/11/13 05:46:52;;;;;;;48.95;20.13;;;;;;;4.86;87.92;96269.75;5067871;28;20495;-70
2021/11/13 05:49:19;;;;;;;41.58;18.67;;;;;;;4.78;88.03;96275.72;5067108;28;20048;-70
2021/11/13 05:51:46;;;;;;;40.75;18.83;;;;;;;4.70;87.93;96273.66;5067906;28;20044;-70
2021/11/13 05:54:12;;;;;;;53.85;19.20;;;;;;;4.69;88.56;96272.03;5066203;28;20052;-70
2021/11/13 05:56:39;;;;;;;46.95;19.38;;;;;;;4.65;88.19;96269.09;5067478;28;20435;-72
2021/11/13 05:59:06;;;;;;;44.05;18.05;;;;;;;4.56;87.95;96270.00;5066642;28;20410;-70
2021/11/13 06:01:32;;;;;;;39.83;18.50;;;;;;;4.47;88.03;96275.16;5067183;28;20051;-72
2021/11/13 06:04:00;;;;;;;43.55;17.38;;;;;;;4.41;88.97;96277.09;5067221;28;20052;-72
2021/11/13 06:06:27;;;;;;;50.20;19.33;;;;;;;4.32;89.35;96281.47;5066357;28;20056;-70
2021/11/13 06:08:54;;;;;;;41.70;18.02;;;;;;;4.28;89.36;96283.13;5067512;28;20059;-72
2021/11/13 06:11:20;;;;;;;42.85;18.67;;;;;;;4.25;89.74;96282.88;5066018;28;20508;-72
2021/11/13 06:13:46;;;;;;;49.13;18.75;;;;;;;4.17;89.61;96282.34;5067580;28;20058;-70
2021/11/13 06:16:13;;;;;;;46.92;18.75;;;;;;;4.08;89.86;96288.63;5066012;28;20059;-72
2021/11/13 06:18:40;;;;;;;49.83;17.52;;;;;;;4.04;90.46;96284.88;5067199;28;20396;-72
2021/11/13 06:21:09;;;;;;;43.17;19.40;;;;;;;4.02;90.87;96281.63;5066141;28;20056;-71
2021/11/13 06:23:38;;;;;;;44.60;19.10;;;;;;;4.05;91.53;96283.78;5066732;28;20047;-72
2021/11/13 06:26:05;;;;;;;41.47;17.92;;;;;;;4.01;91.00;96277.34;5066477;28;20047;-70
2021/11/13 06:28:32;;;;;;;42.00;20.40;;;;;;;4.04;91.04;96287.56;5066734;28;20052;-70
2021/11/13 06:30:59;;;;;;;43.10;19.77;;;;;;;4.00;90.77;96284.63;5067282;28;20049;-70
2021/11/13 06:33:25;;;;;;;47.72;19.40;;;;;;;4.08;91.22;96285.94;5065908;28;20048;-70
2021/11/13 06:35:52;;;;;;;40.58;18.00;;;;;;;4.05;90.60;96283.78;5068079;28;20044;-70
2021/11/13 06:38:20;;;;;;;40.42;18.77;;;;;;;4.02;90.54;96295.09;5069477;28;20133;-71
2021/11/13 06:40:47;;;;;;;41.60;17.73;;;;;;;4.02;90.65;96290.56;5071013;28;20059;-70
2021/11/13 06:43:14;;;;;;;37.63;18.92;;;;;;;4.02;90.87;96290.56;5070444;28;20048;-70
2021/11/13 06:45:41;;;;;;;44.40;18.42;;;;;;;4.04;90.66;96295.66;5070549;28;20040;-70
2021/11/13 06:48:07;;;;;;;39.33;19.27;;;;;;;4.08;90.81;96296.72;5070096;28;20511;-70
2021/11/13 06:50:35;;;;;;;40.72;18.65;;;;;;;4.11;90.47;96298.84;5070340;28;20045;-72
2021/11/13 06:53:03;;;;;;;36.97;17.70;;;;;;;4.12;90.22;96303.97;5070168;28;20079;-72
2021/11/13 06:55:31;;;;;;;35.67;17.08;;;;;;;4.11;89.52;96304.22;5069706;28;20698;-72
2021/11/13 06:57:58;;;;;;;36.17;17.15;;;;;;;4.14;89.50;96309.06;5070791;28;20071;-73
2021/11/13 07:00:25;;;;;;;34.38;17.48;;;;;;;4.16;89.36;96317.69;5069127;28;20041;-72
2021/11/13 07:02:53;;;;;;;35.05;16.88;;;;;;;4.12;88.66;96316.63;5070663;28;20057;-72
2021/11/13 07:05:20;;;;;;;32.03;15.98;;;;;;;4.08;88.58;96326.34;5069299;28;20714;-71
2021/11/13 07:07:47;;;;;;;34.47;16.30;;;;;;;3.99;88.80;96322.63;5070287;28;20041;-72
2021/11/13 07:10:15;;;;;;;34.85;16.27;;;;;;;3.93;89.48;96319.94;5069449;28;20048;-72
2021/11/13 07:12:44;;;;;;;35.55;17.80;;;;;;;3.95;89.92;96324.25;5069858;28;20067;-72
2021/11/13 07:15:13;;;;;;;32.88;17.38;;;;;;;3.96;89.78;96312.38;5069540;28;20053;-72
2021/11/13 07:17:39;;;;;;;33.65;16.25;;;;;;;3.95;89.38;96316.97;5069375;28;20067;-72
2021/11/13 07:20:08;;;;;;;32.30;16.45;;;;;;;4.01;89.28;96320.44;5070078;28;20428;-70
2021/11/13 07:22:34;;;;;;;32.58;16.27;;;;;;;4.02;89.32;96314.81;5069283;28;20072;-70
2021/11/13 07:25:01;;;;;;;35.80;16.83;;;;;;;4.01;89.20;96320.44;5070632;28;20075;-72
2021/11/13 07:27:27;;;;;;;56.15;20.05;;;;;;;4.09;89.75;96314.50;5068971;28;20509;-70
2021/11/13 07:30:00;;;;;;;35.92;16.85;;;;;;;4.07;88.91;96313.94;5070486;28;20055;-70
2021/11/13 07:32:28;;;;;;;35.75;16.23;;;;;;;4.11;89.47;96305.03;5069156;28;20565;-71
2021/11/13 07:34:54;;;;;;;39.13;17.70;;;;;;;4.14;89.08;96303.69;5070067;28;20131;-70
2021/11/13 07:37:22;;;;;;;37.92;17.35;;;;;;;4.10;88.81;96303.44;5069982;28;20053;-70
2021/11/13 07:39:48;;;;;;;35.58;17.45;;;;;;;4.12;89.45;96295.06;5069253;28;20051;-70
2021/11/13 07:42:15;;;;;;;35.28;16.83;;;;;;;4.19;89.69;96284.78;5068867;28;20052;-70
2021/11/13 07:44:41;;;;;;;38.28;18.40;;;;;;;4.22;90.13;96288.81;5068773;28;20036;-70
2021/11/13 07:47:09;;;;;;;43.88;19.33;;;;;;;4.29;90.65;96279.34;5069577;28;20052;-71
2021/11/13 07:49:36;;;;;;;45.92;19.77;;;;;;;4.38;90.73;96287.63;5068642;28;20044;-70
2021/11/13 07:52:03;;;;;;;49.58;21.15;;;;;;;4.47;90.36;96285.16;5069471;28;20052;-70
2021/11/13 07:54:29;;;;;;;38.10;18.55;;;;;;;4.49;89.95;96299.16;5068859;28;20410;-70
2021/11/13 07:56:56;;;;;;;37.50;18.05;;;;;;;4.58;89.56;96286.69;5069567;28;20049;-71
2021/11/13 07:59:23;;;;;;;37.05;17.23;;;;;;;4.54;88.62;96291.84;5068369;28;20499;-70
2021/11/13 08:01:49;;;;;;;35.17;17.50;;;;;;;4.57;88.85;96290.47;5068629;28;20052;-71
2021/11/13 08:04:17;;;;;;;36.25;18.08;;;;;;;4.65;88.83;96276.41;5068713;28;20068;-70
2021/11/13 08:06:44;;;;;;;35.20;17.85;;;;;;;4.70;89.22;96279.84;5068768;28;20040;-70
2021/11/13 08:09:11;;;;;;;33.03;17.27;;;;;;;4.75;88.71;96281.72;5069208;28;20415;-72
2021/11/13 08:11:37;;;;;;;35.97;18.23;;;;;;;4.77;88.31;96284.13;5068455;28;20067;-72
2021/11/13 08:14:05;;;;;;;37.20;16.85;;;;;;;4.83;88.78;96282.97;5068943;28;20048;-71
2021/11/13 08:16:31;;;;;;;31.13;16.20;;;;;;;4.87;88.46;96279.44;5068608;28;20056;-72
2021/11/13 08:18:58;;;;;;;31.38;16.73;;;;;;;4.93;88.31;96272.91;5069556;28;20083;-72
2021/11/13 08:21:27;;;;;;;28.00;15.55;;;;;;;5.01;87.62;96281.47;5068527;28;20052;-71
2021/11/13 08:23:53;;;;;;;31.40;16.38;;;;;;;5.00;87.09;96279.88;5068630;28;20127;-72
2021/11/13 08:26:20;;;;;;;28.80;16.13;;;;;;;5.04;87.04;96272.81;5068442;28;20044;-73
2021/11/13 08:28:46;;;;;;;27.27;15.32;;;;;;;5.08;87.21;96284.66;5068735;28;20049;-73
2021/11/13 08:31:13;;;;;;;31.63;15.35;;;;;;;5.11;87.29;96294.88;5068814;28;20079;-72
2021/11/13 08:33:39;;;;;;;26.20;14.45;;;;;;;5.12;86.46;96296.50;5067877;28;20048;-72
2021/11/13 08:36:06;;;;;;;28.05;14.40;;;;;;;4.95;86.44;96303.09;5068388;28;20528;-72
2021/11/13 08:38:34;;;;;;;27.13;14.85;;;;;;;4.88;87.25;96302.63;5067939;28;20067;-72
2021/11/13 08:41:01;;;;;;;25.83;13.85;;;;;;;4.84;87.62;96301.56;5068308;28;20733;-72
2021/11/13 08:43:27;;;;;;;25.88;14.75;;;;;;;4.80;87.73;96307.81;5064991;28;20146;-71
2021/11/13 08:45:54;;;;;;;30.67;15.55;;;;;;;4.81;88.44;96309.44;5067420;28;20662;-72
2021/11/13 08:48:21;;;;;;;30.45;15.80;;;;;;;4.77;88.78;96316.50;5067205;28;20044;-72
2021/11/13 08:50:50;;;;;;;29.92;16.17;;;;;;;4.74;88.72;96322.44;5067722;28;20053;-72
2021/11/13 08:53:16;;;;;;;32.00;16.77;;;;;;;4.67;88.87;96328.97;5067098;28;20079;-72
2021/11/13 08:55:44;;;;;;;29.70;15.55;;;;;;;4.70;88.91;96311.44;5067222;28;20040;-72
2021/11/13 08:58:11;;;;;;;29.40;16.27;;;;;;;4.72;88.41;96320.03;5068026;28;20045;-72
2021/11/13 09:00:41;;;;;;;31.52;16.15;;;;;;;4.81;88.78;96312.94;5066709;28;20045;-72
2021/11/13 09:03:11;;;;;;;30.17;15.95;;;;;;;4.86;88.67;96314.81;5067719;28;20059;-72
2021/11/13 09:05:38;;;;;;;30.33;15.60;;;;;;;4.84;88.35;96327.75;5067888;28;20048;-72
2021/11/13 09:08:07;;;;;;;27.35;15.77;;;;;;;4.83;88.66;96321.56;5067750;28;20048;-71
2021/11/13 09:10:34;;;;;;;29.40;16.33;;;;;;;4.90;88.71;96318.53;5067825;28;20053;-72
2021/11/13 09:13:02;;;;;;;34.15;16.63;;;;;;;5.00;88.62;96317.63;5067241;28;20044;-72
2021/11/13 09:15:31;;;;;;;27.40;15.10;;;;;;;5.02;88.05;96318.97;5087907;28;20044;-72
2021/11/13 09:17:58;;;;;;;31.63;16.33;;;;;;;5.09;88.41;96310.56;5087628;28;20225;-72
2021/11/13 09:20:26;;;;;;;27.50;15.88;;;;;;;5.15;87.91;96312.09;5087912;28;20048;-72
2021/11/13 09:22:53;;;;;;;29.67;15.65;;;;;;;5.24;87.68;96307.72;5087086;28;20048;-72
2021/11/13 09:25:20;;;;;;;29.98;15.90;;;;;;;5.26;87.35;96308.22;5087456;28;20048;-72
2021/11/13 09:27:48;;;;;;;29.52;16.15;;;;;;;5.29;87.33;96310.38;5086954;28;20040;-72
2021/11/13 09:30:18;;;;;;;31.63;16.10;;;;;;;5.31;87.36;96310.88;5087100;28;20047;-72
2021/11/13 09:32:47;;;;;;;30.33;16.20;;;;;;;5.39;87.68;96312.97;5087040;28;20044;-72
2021/11/13 09:35:14;;;;;;;32.60;16.75;;;;;;;5.48;88.03;96313.97;5086970;28;20470;-72
2021/11/13 09:37:41;;;;;;;29.55;16.20;;;;;;;5.60;87.59;96310.06;5087286;28;20670;-72
2021/11/13 09:40:10;;;;;;;36.38;18.30;;;;;;;5.68;87.60;96315.59;5086441;28;20418;-72
2021/11/13 09:42:38;;;;;;;36.83;18.77;;;;;;;5.76;87.47;96306.09;5087360;28;20052;-72
2021/11/13 09:45:05;;;;;;;35.60;18.23;;;;;;;5.89;87.05;96305.38;5086215;28;20051;-72
2021/11/13 09:47:35;;;;;;;34.90;17.73;;;;;;;6.00;85.91;96306.91;5087638;28;20055;-72
2021/11/13 09:50:02;;;;;;;34.03;18.15;;;;;;;6.04;85.71;96311.72;5086581;28;20052;-71
2021/11/13 09:52:28;;;;;;;35.05;18.13;;;;;;;6.12;86.10;96314.59;5087087;28;20048;-72
2021/11/13 09:54:55;;;;;;;35.55;19.88;;;;;;;6.22;85.57;96314.47;5086798;28;20052;-72
2021/11/13 09:57:22;;;;;;;37.00;19.73;;;;;;;6.29;85.41;96303.28;5086496;28;20051;-72
2021/11/13 09:59:48;;;;;;;38.25;19.30;;;;;;;6.37;85.04;96302.63;5087649;28;20043;-71
2021/11/13 10:02:15;;;;;;;36.10;18.63;;;;;;;6.45;84.75;96307.38;5085722;28;20052;-71
2021/11/13 10:04:43;;;;;;;35.15;19.27;;;;;;;6.46;83.70;96308.97;5087559;28;20051;-71
2021/11/13 10:07:10;;;;;;;34.58;18.17;;;;;;;6.53;84.11;96309.44;5085868;28;20146;-71
2021/11/13 10:09:36;;;;;;;41.03;17.58;;;;;;;6.61;82.37;96307.94;5087839;28;20059;-71
2021/11/13 10:12:03;;;;;;;34.40;16.83;;;;;;;6.60;81.98;96306.34;5085670;28;20055;-72
2021/11/13 10:14:34;;;;;;;32.17;15.90;;;;;;;6.64;81.64;96295.75;5087568;28;20050;-72
2021/11/13 10:17:01;;;;;;;36.85;17.85;;;;;;;6.63;81.47;96288.72;5087560;28;20109;-71
2021/11/13 10:19:29;;;;;;;29.70;17.05;;;;;;;6.65;81.46;96294.66;5066536;28;20052;-71
2021/11/13 10:21:58;;;;;;;33.75;17.52;;;;;;;6.72;81.54;96292.38;5066826;28;20053;-71
2021/11/13 10:24:28;;;;;;;28.73;15.07;;;;;;;6.67;79.75;96287.84;5063342;28;20056;-70
2021/11/13 10:26:57;;;;;;;32.10;16.20;;;;;;;6.61;79.59;96288.22;5067034;28;20410;-70
2021/11/13 10:29:26;;;;;;;25.35;14.35;;;;;;;6.60;79.38;96281.19;5066060;28;20127;-72
2021/11/13 10:31:54;;;;;;;32.20;15.13;;;;;;;6.59;79.63;96279.59;5067150;28;20040;-71
2021/11/13 10:34:23;;;;;;;32.75;15.50;;;;;;;6.59;80.30;96279.59;5065459;28;20531;-70
2021/11/13 10:36:52;;;;;;;32.78;16.02;;;;;;;6.56;79.87;96274.75;5067180;28;20063;-70
2021/11/13 10:39:24;;;;;;;42.22;15.80;;;;;;;6.54;79.31;96273.16;5066282;28;20287;-72
2021/11/13 10:41:53;;;;;;;26.25;15.35;;;;;;;6.52;79.25;96275.38;5066427;28;20053;-72
2021/11/13 10:44:25;;;;;;;27.17;15.50;;;;;;;6.53;80.71;96273.47;5066552;28;20056;-72
2021/11/13 10:46:52;;;;;;;24.98;14.38;;;;;;;6.45;80.05;96280.31;5066148;28;20049;-72
2021/11/13 10:49:19;;;;;;;28.40;16.55;;;;;;;6.43;80.94;96276.31;5066258;28;20057;-72
2021/11/13 10:51:54;;;;;;;28.27;16.23;;;;;;;6.35;81.07;96280.47;5066059;28;20121;-72
2021/11/13 10:54:22;;;;;;;52.45;19.35;;;;;;;6.32;81.01;96281.06;5066016;28;20048;-72
2021/11/13 10:56:52;;;;;;;30.35;15.10;;;;;;;6.32;82.50;96275.66;5066347;28;20078;-72
2021/11/13 10:59:25;;;;;;;48.47;19.38;;;;;;;6.37;83.47;96272.06;5065805;28;20062;-72
2021/11/13 11:01:53;;;;;;;37.95;17.98;;;;;;;6.46;83.48;96286.53;5066856;28;20106;-72
2021/11/13 11:04:23;;;;;;;44.10;18.67;;;;;;;6.54;82.98;96283.19;5066015;28;20424;-72
2021/11/13 11:06:52;;;;;;;38.75;17.63;;;;;;;6.56;82.70;96285.59;5066631;28;20059;-72
2021/11/13 11:09:24;;;;;;;26.17;14.25;;;;;;;6.62;81.95;96279.00;5065586;28;20040;-72
2021/11/13 11:11:52;;;;;;;32.50;16.85;;;;;;;6.64;82.25;96282.22;5067115;28;20162;-72
2021/11/13 11:14:20;;;;;;;26.65;15.90;;;;;;;6.70;82.83;96278.34;5065473;28;20231;-72
2021/11/13 11:16:51;;;;;;;23.92;14.82;;;;;;;6.73;81.82;96275.84;5066847;28;20055;-73
2021/11/13 11:19:19;;;;;;;24.95;13.65;;;;;;;6.75;80.49;96267.44;5065846;28;20455;-73
2021/11/13 11:21:52;;;;;;;26.33;14.73;;;;;;;6.75;81.14;96267.44;5066268;28;20047;-73
2021/11/13 11:24:25;;;;;;;40.97;17.80;;;;;;;6.81;81.80;96263.53;5068830;28;20069;-72
2021/11/13 11:26:58;;;;;;;26.67;15.65;;;;;;;6.77;82.36;96259.81;5069508;28;20059;-73